Terminal Aerodrome Forecast
Issued by NWS Mt. Holly, NJ

Home | Current Version | Previous Version | Text Only | Print | Product List | Glossary On
Versions: 1 2 3 4 5 6 7 8 9 10 11 12 13 14 15 16 17 18 19 20 21 22 23
396
FTUS41 KPHI 222107 AAA
TAFRDG
TAF AMD
KRDG 222107Z 2221/2318 21010G18KT P6SM SCT060
     FM230000 22008KT P6SM BKN060 BKN120
      TEMPO 2302/2305 4SM -TSRA OVC035CB
     FM230800 28006KT P6SM VCSH SCT012 BKN035
     FM231400 32008KT P6SM SCT035 SCT250=

USA.gov is the U.S. government's official web portal to all federal, state and local government web resources and services.